Time;durP1;ratioP1;P1;durP2;ratioP2;P2;SDS_P1;SDS_P2;PMS_P1;PMS_P2;Temp;Humidity;BMP_temperature;BMP_pressure;BME280_temperature;BME280_humidity;BME280_pressure;Samples;Min_cycle;Max_cycle;Signal;HPM_P1;HPM_P2
2021/06/20 00:00:16;;;;;;;2.7;2.3;;;;;;;22.36;72.67871;934.6547;;;;
2021/06/20 00:02:41;;;;;;;3.8;2;;;;;;;22.47;72.60254;934.6074;;;;
2021/06/20 00:05:06;;;;;;;2.5;2.3;;;;;;;22.41;72.89648;934.5666;;;;
2021/06/20 00:07:31;;;;;;;1.8;1.7;;;;;;;22.11;74.14941;934.5457;;;;
2021/06/20 00:09:56;;;;;;;3.9;1.9;;;;;;;22.11;74.22949;934.5604;;;;
2021/06/20 00:12:22;;;;;;;2.9;2.2;;;;;;;22.05;74.54883;934.5333;;;;
2021/06/20 00:14:48;;;;;;;1.7;1.6;;;;;;;22.14;73.6377;934.5508;;;;
2021/06/20 00:17:13;;;;;;;2.6;2.3;;;;;;;22.24;73.30273;934.5203;;;;
2021/06/20 00:19:38;;;;;;;2.3;2.1;;;;;;;22.26;73.5166;934.5463;;;;
2021/06/20 00:24:28;;;;;;;4.1;2.7;;;;;;;21.95;74.90723;934.4427;;;;
2021/06/20 00:26:53;;;;;;;7.6;2.4;;;;;;;21.98;74.86523;934.3419;;;;
2021/06/20 00:29:18;;;;;;;2;1.9;;;;;;;22.01;74.68555;934.3258;;;;
2021/06/20 00:31:44;;;;;;;1.6;1.5;;;;;;;22.04;74.07813;934.2985;;;;
2021/06/20 00:34:09;;;;;;;2.9;2.1;;;;;;;21.96;74.5;934.2014;;;;
2021/06/20 00:36:34;;;;;;;2.1;1.9;;;;;;;21.96;74.44141;934.2891;;;;
2021/06/20 00:38:59;;;;;;;4.3;1.9;;;;;;;21.85;74.55078;934.1981;;;;
2021/06/20 00:41:24;;;;;;;1.8;1.7;;;;;;;21.69;75.13281;934.2333;;;;
2021/06/20 00:43:49;;;;;;;7.7;3.4;;;;;;;21.67;75.15332;934.2658;;;;
2021/06/20 00:46:15;;;;;;;3.4;2.4;;;;;;;21.74;74.8252;934.2507;;;;
2021/06/20 00:48:40;;;;;;;2.5;2.3;;;;;;;21.82;74.42871;934.2442;;;;
2021/06/20 00:51:06;;;;;;;1.9;1.7;;;;;;;21.89;74.125;934.2319;;;;
2021/06/20 00:53:31;;;;;;;4.4;2;;;;;;;21.93;73.96875;934.2189;;;;
2021/06/20 00:55:57;;;;;;;2.5;2.3;;;;;;;21.92;74.07031;934.2891;;;;
2021/06/20 00:58:23;;;;;;;2;1.8;;;;;;;21.91;74.13965;934.2456;;;;
2021/06/20 01:00:49;;;;;;;3.2;2.1;;;;;;;21.78;74.72754;934.3496;;;;
2021/06/20 01:03:14;;;;;;;2.1;2;;;;;;;21.82;74.53418;934.3026;;;;
2021/06/20 01:05:40;;;;;;;3.3;2.3;;;;;;;21.75;74.80371;934.2989;;;;
2021/06/20 01:08:06;;;;;;;4.9;2.4;;;;;;;21.61;75.34277;934.3011;;;;
2021/06/20 01:10:35;;;;;;;9.1;3.2;;;;;;;21.45;75.85352;934.2927;;;;
2021/06/20 01:12:56;;;;;;;3.7;3;;;;;;;21.4;76.12695;934.2698;;;;
2021/06/20 01:15:28;;;;;;;4.3;2.5;;;;;;;21.45;75.61914;934.2206;;;;
2021/06/20 01:17:54;;;;;;;3.7;2.9;;;;;;;21.43;75.68555;934.2159;;;;
2021/06/20 01:20:19;;;;;;;2.5;2.1;;;;;;;21.42;75.57813;934.347;;;;
2021/06/20 01:22:46;;;;;;;3;2.1;;;;;;;21.5;75.44141;934.3239;;;;
2021/06/20 01:25:11;;;;;;;1.9;1.8;;;;;;;21.61;74.95508;934.336;;;;
2021/06/20 01:27:37;;;;;;;4;2.4;;;;;;;21.46;75.59766;934.2795;;;;
2021/06/20 01:30:03;;;;;;;3.6;2.2;;;;;;;21.4;75.69336;934.2601;;;;
2021/06/20 01:32:27;;;;;;;3.5;2.8;;;;;;;21.45;75.54883;934.3357;;;;
2021/06/20 01:34:52;;;;;;;3.3;2.1;;;;;;;21.48;75.40332;934.2792;;;;
2021/06/20 01:37:18;;;;;;;2.9;2.4;;;;;;;21.47;75.07129;934.2888;;;;
2021/06/20 01:39:43;;;;;;;3.3;2;;;;;;;21.43;74.85547;934.1379;;;;
2021/06/20 01:42:12;;;;;;;2.8;2.6;;;;;;;21.51;74.4248;934.1696;;;;
2021/06/20 01:44:34;;;;;;;1.7;1.5;;;;;;;21.47;74.52246;934.1761;;;;
2021/06/20 01:47:00;;;;;;;3;2.1;;;;;;;21.44;75.21973;934.1052;;;;
2021/06/20 01:49:25;;;;;;;4.7;3;;;;;;;21.37;74.92676;934.1821;;;;
2021/06/20 01:51:51;;;;;;;3.5;2.6;;;;;;;21.3;75.32422;934.1411;;;;
2021/06/20 01:54:15;;;;;;;2.1;2;;;;;;;21.27;75.6123;934.155;;;;
2021/06/20 01:56:41;;;;;;;2.1;2;;;;;;;21.23;75.88672;934.1595;;;;
2021/06/20 01:59:08;;;;;;;3.7;2.4;;;;;;;21.2;75.70703;934.1336;;;;
2021/06/20 02:01:33;;;;;;;2.6;2.4;;;;;;;21.29;75.3457;934.1075;;;;
2021/06/20 02:03:59;;;;;;;2.4;2.2;;;;;;;21.18;75.65527;934.188;;;;
2021/06/20 02:06:25;;;;;;;12;2.2;;;;;;;21.17;75.55957;934.2467;;;;
2021/06/20 02:08:50;;;;;;;1.8;1.7;;;;;;;21.11;75.33887;934.2911;;;;
2021/06/20 02:11:32;;;;;;;5.2;2.5;;;;;;;21.16;75.32324;934.3014;;;;
2021/06/20 02:13:58;;;;;;;2.8;2.6;;;;;;;21.15;75.53223;934.3148;;;;
2021/06/20 02:16:23;;;;;;;1.9;1.7;;;;;;;21.03;75.53711;934.3286;;;;
2021/06/20 02:18:49;;;;;;;4.3;2.5;;;;;;;20.81;76.7041;934.3215;;;;
2021/06/20 02:21:14;;;;;;;2;1.9;;;;;;;20.88;76.74805;934.3931;;;;
2021/06/20 02:23:39;;;;;;;3.5;2.4;;;;;;;20.84;76.69531;934.4279;;;;
2021/06/20 02:26:04;;;;;;;2.9;2.7;;;;;;;20.96;76.10938;934.3755;;;;
2021/06/20 02:28:30;;;;;;;3.4;2.9;;;;;;;21;75.92871;934.459;;;;
2021/06/20 02:30:55;;;;;;;5.2;3.4;;;;;;;20.97;76.05273;934.4959;;;;
2021/06/20 02:33:21;;;;;;;2.9;2.6;;;;;;;21.02;76.2373;934.5045;;;;
2021/06/20 02:35:46;;;;;;;3.1;2.5;;;;;;;20.84;76.46191;934.4554;;;;
2021/06/20 02:38:13;;;;;;;4.7;2.6;;;;;;;20.85;76.41602;934.42;;;;
2021/06/20 02:40:38;;;;;;;3.1;2.8;;;;;;;20.8;76.47852;934.3996;;;;
2021/06/20 02:43:03;;;;;;;3.5;3.1;;;;;;;20.69;76.68066;934.4565;;;;
2021/06/20 02:45:28;;;;;;;2.6;2.2;;;;;;;20.67;76.71387;934.4483;;;;
2021/06/20 02:47:53;;;;;;;2;1.9;;;;;;;20.71;76.26465;934.4403;;;;
2021/06/20 02:50:19;;;;;;;1.9;1.8;;;;;;;20.81;76.06152;934.4769;;;;
2021/06/20 02:52:44;;;;;;;4.2;1.9;;;;;;;20.81;76.15332;934.4487;;;;
2021/06/20 02:55:10;;;;;;;3.1;2.8;;;;;;;20.89;75.63965;934.4164;;;;
2021/06/20 02:57:35;;;;;;;3.9;2.2;;;;;;;20.91;74.83594;934.4108;;;;
2021/06/20 03:00:03;;;;;;;5.6;2.4;;;;;;;20.84;75.49316;934.3718;;;;
2021/06/20 03:02:26;;;;;;;3.7;2.3;;;;;;;20.76;76.02832;934.3541;;;;
2021/06/20 03:05:12;;;;;;;4.9;2.2;;;;;;;20.67;75.55566;934.3699;;;;
2021/06/20 03:07:38;;;;;;;6.5;2.7;;;;;;;20.74;75.14746;934.4504;;;;
2021/06/20 03:10:03;;;;;;;2;1.8;;;;;;;20.7;75.26953;934.4097;;;;
2021/06/20 03:12:28;;;;;;;2.5;2.3;;;;;;;20.6;75.33496;934.3862;;;;
2021/06/20 03:14:54;;;;;;;3.8;2.8;;;;;;;20.59;75.77734;934.3722;;;;
2021/06/20 03:17:20;;;;;;;3.8;2.7;;;;;;;20.52;74.66602;934.4288;;;;
2021/06/20 03:20:11;;;;;;;2.4;1.9;;;;;;;20.71;73.37793;934.4855;;;;
2021/06/20 03:22:37;;;;;;;3.3;1.8;;;;;;;20.84;73.52734;934.5186;;;;
2021/06/20 03:25:02;;;;;;;4;2.9;;;;;;;20.84;74.33594;934.5256;;;;
2021/06/20 03:27:27;;;;;;;2.7;2.3;;;;;;;20.85;74.35938;934.5375;;;;
2021/06/20 03:29:52;;;;;;;9.1;2.4;;;;;;;20.86;74.43066;934.5655;;;;
2021/06/20 03:32:17;;;;;;;2.8;2.6;;;;;;;20.89;74.55469;934.6047;;;;
2021/06/20 03:34:48;;;;;;;1.7;1.6;;;;;;;20.89;74.75195;934.5652;;;;
2021/06/20 03:37:08;;;;;;;4.3;2.6;;;;;;;20.54;76.09668;934.4968;;;;
2021/06/20 03:39:33;;;;;;;3;2.8;;;;;;;20.56;76.25098;934.5818;;;;
2021/06/20 03:41:58;;;;;;;2.7;2.5;;;;;;;20.47;76.81836;934.6539;;;;
2021/06/20 03:44:23;;;;;;;3.3;3;;;;;;;20.49;77.11523;934.5834;;;;
2021/06/20 03:46:48;;;;;;;2.9;2.7;;;;;;;20.5;76.92969;934.6736;;;;
2021/06/20 03:49:13;;;;;;;3.3;2.3;;;;;;;20.69;76.40137;934.5719;;;;
2021/06/20 03:51:39;;;;;;;4.9;2.6;;;;;;;20.88;75.52051;934.7162;;;;
2021/06/20 03:54:04;;;;;;;6.9;2.4;;;;;;;20.94;75.18066;934.748;;;;
2021/06/20 03:56:31;;;;;;;5.3;2.1;;;;;;;20.95;74.41211;934.7709;;;;
2021/06/20 03:58:56;;;;;;;2.5;2.3;;;;;;;21.01;74.10547;934.7436;;;;
2021/06/20 04:02:30;;;;;;;3.2;2.7;;;;;;;20.89;74.54297;934.8499;;;;
2021/06/20 04:04:55;;;;;;;5.7;2.4;;;;;;;20.97;74.07617;934.9119;;;;
2021/06/20 04:07:21;;;;;;;2.6;2.3;;;;;;;20.98;74.03125;934.8825;;;;
2021/06/20 04:09:46;;;;;;;3.1;2.1;;;;;;;20.96;74.08594;934.8563;;;;
2021/06/20 04:12:13;;;;;;;4.3;2.6;;;;;;;20.91;74.50879;934.822;;;;
2021/06/20 04:14:37;;;;;;;9;3.2;;;;;;;21.09;73.8623;934.8602;;;;
2021/06/20 04:17:02;;;;;;;3.3;2.8;;;;;;;21.29;73.16992;934.7552;;;;
2021/06/20 04:19:27;;;;;;;3.3;1.8;;;;;;;21.49;73.50684;934.7823;;;;
2021/06/20 04:21:52;;;;;;;1.8;1.7;;;;;;;21.52;72.62109;934.8369;;;;
2021/06/20 04:24:18;;;;;;;6.5;2.5;;;;;;;21.72;71.95117;934.8124;;;;
2021/06/20 04:26:44;;;;;;;2.3;2.1;;;;;;;21.93;71.79785;934.9172;;;;
2021/06/20 04:29:09;;;;;;;6.8;2.7;;;;;;;22.02;71.86035;934.9069;;;;
2021/06/20 04:31:38;;;;;;;3.5;1.8;;;;;;;22;71.66992;934.8728;;;;
2021/06/20 04:34:03;;;;;;;2.7;2.3;;;;;;;21.97;71.38379;934.8376;;;;
2021/06/20 04:36:31;;;;;;;2.8;2.4;;;;;;;22;71.92578;934.7734;;;;
2021/06/20 04:38:56;;;;;;;5.8;2.8;;;;;;;22.17;71.52148;934.7166;;;;
2021/06/20 04:41:22;;;;;;;2.6;2.3;;;;;;;22.27;71.24414;934.6511;;;;
2021/06/20 04:43:58;;;;;;;2.5;2.3;;;;;;;22.36;72.23242;934.6149;;;;
2021/06/20 04:46:12;;;;;;;4;2.7;;;;;;;22.49;70.52734;934.6619;;;;
2021/06/20 04:48:37;;;;;;;4.7;2.2;;;;;;;22.49;70.82129;934.7048;;;;
2021/06/20 04:51:02;;;;;;;2.1;2;;;;;;;22.5;71.65723;934.7317;;;;
2021/06/20 04:53:27;;;;;;;2.6;2.4;;;;;;;22.4;71.52246;934.7497;;;;
2021/06/20 04:55:53;;;;;;;4.7;2.2;;;;;;;22.42;72.46582;934.7615;;;;
2021/06/20 04:58:18;;;;;;;5.2;2.2;;;;;;;22.6;71.68359;934.8066;;;;
2021/06/20 05:00:43;;;;;;;5.3;2.3;;;;;;;22.71;70.99707;934.7524;;;;
2021/06/20 05:03:09;;;;;;;4;2.6;;;;;;;22.67;70.38086;934.7672;;;;
2021/06/20 05:05:34;;;;;;;3.1;2.7;;;;;;;22.7;69.90527;934.6658;;;;
2021/06/20 05:08:02;;;;;;;5.3;2.3;;;;;;;22.8;69.74316;934.7269;;;;
2021/06/20 05:10:26;;;;;;;1.7;1.6;;;;;;;22.83;69.97266;934.7739;;;;
2021/06/20 05:12:55;;;;;;;2;1.8;;;;;;;22.79;69.88281;934.818;;;;
2021/06/20 05:15:18;;;;;;;3.7;2.7;;;;;;;22.79;70.83398;934.796;;;;
2021/06/20 05:17:45;;;;;;;3.7;3.4;;;;;;;23.05;69.4541;934.6476;;;;
2021/06/20 05:20:10;;;;;;;2.7;2.2;;;;;;;23.5;67.87793;934.63;;;;
2021/06/20 05:22:36;;;;;;;2.2;1.6;;;;;;;23.76;67.76563;934.5567;;;;
2021/06/20 05:25:02;;;;;;;3.5;2.7;;;;;;;24.07;67.22266;934.5954;;;;
2021/06/20 05:27:28;;;;;;;13.1;3;;;;;;;24.34;66.27441;934.5583;;;;
2021/06/20 05:29:53;;;;;;;8.9;2.2;;;;;;;24.6;64.52148;934.6961;;;;
2021/06/20 05:32:21;;;;;;;3;2.7;;;;;;;24.74;61.57031;934.7422;;;;
2021/06/20 05:34:46;;;;;;;9.1;2.6;;;;;;;24.45;62.63672;934.7191;;;;
2021/06/20 05:37:12;;;;;;;2.6;2.4;;;;;;;24.24;64.41016;934.8144;;;;
2021/06/20 05:39:37;;;;;;;2.7;1.7;;;;;;;24.31;64.96289;934.9196;;;;
2021/06/20 05:42:03;;;;;;;1.9;1.8;;;;;;;24.53;64.58105;934.9658;;;;
2021/06/20 05:44:29;;;;;;;4.1;1.8;;;;;;;24.54;65.90332;935.0297;;;;
2021/06/20 05:46:55;;;;;;;2.2;1.8;;;;;;;24.88;66.04688;935.1575;;;;
2021/06/20 05:49:20;;;;;;;2.5;2;;;;;;;25.48;62.71094;935.3286;;;;
2021/06/20 05:51:46;;;;;;;2.2;1.7;;;;;;;26.36;60.06543;935.4462;;;;
2021/06/20 05:54:11;;;;;;;2.7;1.6;;;;;;;27.11;57.37988;935.4478;;;;
2021/06/20 05:56:38;;;;;;;2.3;2.1;;;;;;;27.31;56.08789;935.5369;;;;
2021/06/20 05:59:03;;;;;;;6.4;2.2;;;;;;;27.14;54.73926;935.5187;;;;
2021/06/20 06:01:31;;;;;;;1.7;1.6;;;;;;;27.36;53.54492;935.6072;;;;
2021/06/20 06:03:55;;;;;;;2.8;2.1;;;;;;;27.17;53.42578;935.6119;;;;
2021/06/20 06:06:21;;;;;;;2;1.6;;;;;;;27.32;53.34961;935.6769;;;;
2021/06/20 06:08:46;;;;;;;1.4;1.3;;;;;;;27.15;53.35156;935.6297;;;;
2021/06/20 06:11:11;;;;;;;3.8;2.2;;;;;;;27.04;54.7627;935.6615;;;;
2021/06/20 06:13:36;;;;;;;2.6;2.4;;;;;;;26.93;55.15234;935.6802;;;;
2021/06/20 06:16:01;;;;;;;1.7;1.6;;;;;;;26.63;56.2168;935.7296;;;;
2021/06/20 06:18:27;;;;;;;2.5;2.1;;;;;;;26.4;57.60742;935.7438;;;;
2021/06/20 06:20:52;;;;;;;1.4;1.4;;;;;;;26.56;57.94727;935.7728;;;;
2021/06/20 06:23:18;;;;;;;2.9;1.9;;;;;;;26.33;58.81738;935.7678;;;;
2021/06/20 06:25:43;;;;;;;2.1;2;;;;;;;26.49;59.57324;935.8419;;;;
2021/06/20 06:28:09;;;;;;;2.3;2;;;;;;;27.55;57.30469;935.9105;;;;
2021/06/20 06:30:34;;;;;;;4;2.1;;;;;;;27.94;56.61719;935.9153;;;;
2021/06/20 06:33:00;;;;;;;1.5;1.4;;;;;;;28.44;54.74316;935.9725;;;;
2021/06/20 06:35:25;;;;;;;3;2.4;;;;;;;28.95;53.29297;935.9874;;;;
2021/06/20 06:37:52;;;;;;;2.7;2;;;;;;;28.35;54.65918;936.0775;;;;
2021/06/20 06:40:17;;;;;;;1.8;1.7;;;;;;;28.1;55.37988;935.9914;;;;
2021/06/20 06:42:43;;;;;;;8.4;2.5;;;;;;;28.09;58.02734;936.0284;;;;
2021/06/20 06:45:08;;;;;;;5.5;2.1;;;;;;;27.24;59.8623;936.0667;;;;
2021/06/20 06:47:34;;;;;;;3;2.2;;;;;;;27.41;58.63965;936.0402;;;;
2021/06/20 06:49:58;;;;;;;3.6;2.3;;;;;;;28.33;56.67969;935.9885;;;;
2021/06/20 06:52:23;;;;;;;1.5;1.4;;;;;;;27.57;57.59277;935.9441;;;;
2021/06/20 06:54:51;;;;;;;1.8;1.7;;;;;;;27.64;57.85156;935.9047;;;;
2021/06/20 06:57:13;;;;;;;5.8;2;;;;;;;27.73;56.79297;935.883;;;;
2021/06/20 06:59:38;;;;;;;1.9;1.8;;;;;;;29.42;53.09766;935.8986;;;;
2021/06/20 07:02:03;;;;;;;4;2.4;;;;;;;29.72;52.44238;935.9;;;;
2021/06/20 07:04:40;;;;;;;3.7;1.5;;;;;;;30.06;50.90625;935.8513;;;;
2021/06/20 07:07:05;;;;;;;2.8;1.9;;;;;;;29.41;54.0625;935.8537;;;;
2021/06/20 07:09:30;;;;;;;4.4;2;;;;;;;29.15;54.18652;935.8325;;;;
2021/06/20 07:11:55;;;;;;;7.9;2.1;;;;;;;28.75;54.81641;935.839;;;;
2021/06/20 07:14:22;;;;;;;2.3;2.1;;;;;;;29.36;52.86523;935.9309;;;;
2021/06/20 07:16:47;;;;;;;1.6;1.5;;;;;;;29.1;53.40625;935.9694;;;;
2021/06/20 07:19:12;;;;;;;1.8;1.7;;;;;;;28.41;55.85645;936.0508;;;;
2021/06/20 07:21:38;;;;;;;2.8;2.4;;;;;;;28.95;53.89941;936.1323;;;;
2021/06/20 07:24:03;;;;;;;4.1;1.7;;;;;;;29.07;54.3916;936.1373;;;;
2021/06/20 07:26:29;;;;;;;3.6;1.8;;;;;;;30.25;50.96289;936.0246;;;;
2021/06/20 07:28:56;;;;;;;1.5;1.3;;;;;;;30.56;50.22266;935.9619;;;;
2021/06/20 07:31:21;;;;;;;2.4;1.8;;;;;;;32.13;46.74023;935.9189;;;;
2021/06/20 07:33:47;;;;;;;6.1;2.7;;;;;;;32.25;45.54102;935.9073;;;;
2021/06/20 07:36:11;;;;;;;5.4;1.9;;;;;;;32.28;46.10742;935.8683;;;;
2021/06/20 07:38:36;;;;;;;8.3;1.8;;;;;;;32.13;45.88965;935.918;;;;
2021/06/20 07:41:03;;;;;;;2.2;2.1;;;;;;;33.57;41.11621;935.9;;;;
2021/06/20 07:43:28;;;;;;;1.7;1.6;;;;;;;32.75;43.94629;935.825;;;;
2021/06/20 07:45:55;;;;;;;1.4;1.3;;;;;;;32.64;44.14063;935.8226;;;;
2021/06/20 07:48:19;;;;;;;1.8;1.7;;;;;;;32.22;43.06836;935.7921;;;;
2021/06/20 07:50:45;;;;;;;2;1.8;;;;;;;30.57;46.1377;935.9352;;;;
2021/06/20 07:53:10;;;;;;;2.5;2.3;;;;;;;30.19;47.19727;935.9077;;;;
2021/06/20 07:55:36;;;;;;;1.5;1.1;;;;;;;29.42;49.52344;935.8806;;;;
2021/06/20 07:58:01;;;;;;;1.7;1.6;;;;;;;28.74;51.15039;935.8482;;;;
2021/06/20 08:00:28;;;;;;;1.9;1.7;;;;;;;28.67;51.70117;935.823;;;;
2021/06/20 08:02:53;;;;;;;7.9;2.2;;;;;;;28.37;52.49902;935.7683;;;;
2021/06/20 08:05:20;;;;;;;2.5;1.8;;;;;;;28.05;54.07715;935.8075;;;;
2021/06/20 08:07:45;;;;;;;2.4;2.2;;;;;;;27.62;55.78223;935.8925;;;;
2021/06/20 08:10:11;;;;;;;3.8;2.5;;;;;;;27.36;57.38672;935.9052;;;;
2021/06/20 08:12:37;;;;;;;3;2.4;;;;;;;27.37;56.54688;935.8441;;;;
2021/06/20 08:15:02;;;;;;;5;2.5;;;;;;;26.71;58.54785;935.8631;;;;
2021/06/20 08:17:28;;;;;;;3.8;2.7;;;;;;;26.61;59.39941;935.8378;;;;
2021/06/20 08:19:53;;;;;;;3.3;2.5;;;;;;;26.91;58.57422;935.7889;;;;
2021/06/20 08:22:18;;;;;;;4.3;2.7;;;;;;;26.87;58.95898;935.7958;;;;
2021/06/20 08:24:43;;;;;;;4.8;2.7;;;;;;;27.04;58.25879;935.7354;;;;
2021/06/20 08:27:08;;;;;;;2.6;2.2;;;;;;;27.2;58.38574;935.7216;;;;
2021/06/20 08:29:33;;;;;;;3.1;1.4;;;;;;;27.63;55.9375;935.7505;;;;
2021/06/20 08:32:00;;;;;;;6.6;2.2;;;;;;;27.6;56.46875;935.7927;;;;
2021/06/20 08:34:25;;;;;;;4.2;1.9;;;;;;;27.95;55.32422;935.6554;;;;
2021/06/20 08:36:51;;;;;;;3.9;2.6;;;;;;;28.37;54.43652;935.6461;;;;
2021/06/20 08:39:16;;;;;;;2.9;2.6;;;;;;;28.36;54.49609;935.6956;;;;
2021/06/20 08:41:43;;;;;;;9.3;2.6;;;;;;;28.7;53.7041;935.726;;;;
2021/06/20 08:44:08;;;;;;;20.1;2.7;;;;;;;29.61;52.39453;935.6284;;;;
2021/06/20 08:46:36;;;;;;;9.3;2.4;;;;;;;30.82;48.44629;935.6246;;;;
2021/06/20 08:49:03;;;;;;;2.1;1.5;;;;;;;31.88;46.46289;935.6149;;;;
2021/06/20 08:51:29;;;;;;;1.1;1.1;;;;;;;32.61;43.34668;935.5505;;;;
2021/06/20 08:53:54;;;;;;;1.1;1.1;;;;;;;32.26;45.81836;935.4352;;;;
2021/06/20 08:56:19;;;;;;;2.1;1.9;;;;;;;32.23;47.00293;935.3585;;;;
2021/06/20 08:58:46;;;;;;;3.3;1.8;;;;;;;32.22;44.83008;935.3936;;;;
2021/06/20 09:01:11;;;;;;;2.6;1.8;;;;;;;31.61;47.39258;935.3904;;;;
2021/06/20 09:03:56;;;;;;;1.8;1.6;;;;;;;32.34;44.75879;935.4065;;;;
2021/06/20 09:06:24;;;;;;;2.5;2;;;;;;;33.02;43.09668;935.301;;;;
2021/06/20 09:08:48;;;;;;;1.6;1.5;;;;;;;33.75;40.95215;935.1984;;;;
2021/06/20 09:11:13;;;;;;;7.6;2.5;;;;;;;33.83;42.60742;935.1275;;;;
2021/06/20 09:13:38;;;;;;;1.9;1.6;;;;;;;34.03;40.375;935.1269;;;;
2021/06/20 09:16:04;;;;;;;2.1;1.9;;;;;;;33.81;41.60742;935.1623;;;;
2021/06/20 09:18:29;;;;;;;1.7;1.6;;;;;;;34.24;39.97168;935.0564;;;;
2021/06/20 09:20:54;;;;;;;1.5;1.4;;;;;;;33.37;41.67383;934.932;;;;
2021/06/20 09:23:20;;;;;;;1.2;1.2;;;;;;;32.17;44.91016;934.9045;;;;
2021/06/20 09:25:45;;;;;;;6.6;1.9;;;;;;;32.11;44.06445;934.8923;;;;
2021/06/20 09:28:11;;;;;;;2.8;2;;;;;;;32.61;44.42578;934.7979;;;;
2021/06/20 09:30:39;;;;;;;2.2;1.8;;;;;;;32.59;45.05957;934.8105;;;;
2021/06/20 09:33:02;;;;;;;6;2.1;;;;;;;32.5;43.875;934.8011;;;;
2021/06/20 09:35:27;;;;;;;4.4;1.2;;;;;;;31.63;46.79688;934.7308;;;;
2021/06/20 09:37:53;;;;;;;5.3;2.1;;;;;;;31.87;45.93457;934.6827;;;;
2021/06/20 09:40:18;;;;;;;2.6;1.7;;;;;;;31.34;48.21484;934.5889;;;;
2021/06/20 09:42:43;;;;;;;2.9;2.1;;;;;;;30.69;49.69824;934.5797;;;;
2021/06/20 09:45:08;;;;;;;2.1;1.5;;;;;;;30.71;49.76172;934.5318;;;;
2021/06/20 09:47:33;;;;;;;2.9;1.8;;;;;;;30.72;49.64258;934.5639;;;;
2021/06/20 09:49:58;;;;;;;2.6;2.4;;;;;;;30.15;51.58496;934.5464;;;;
2021/06/20 09:52:25;;;;;;;1.5;1.4;;;;;;;30.69;51.0127;934.5775;;;;
2021/06/20 09:54:50;;;;;;;3.2;2.3;;;;;;;30.98;48.2832;934.5706;;;;
2021/06/20 09:57:16;;;;;;;5.5;2.6;;;;;;;30.98;47.41113;934.4788;;;;
2021/06/20 09:59:42;;;;;;;7;1.9;;;;;;;30.96;48.24609;934.4357;;;;
2021/06/20 10:02:05;;;;;;;2.3;1.6;;;;;;;30.85;48.19824;934.4191;;;;
2021/06/20 10:04:30;;;;;;;5.5;2;;;;;;;30.93;48.41016;934.3235;;;;
2021/06/20 10:06:55;;;;;;;2.1;1.7;;;;;;;31.14;49.73633;934.395;;;;
2021/06/20 10:09:20;;;;;;;1.3;1.2;;;;;;;31.21;49.38477;934.363;;;;
2021/06/20 10:11:46;;;;;;;5.4;2.3;;;;;;;30.93;49.49805;934.3448;;;;
2021/06/20 10:14:11;;;;;;;3.6;2.2;;;;;;;30.9;49.13574;934.3433;;;;
2021/06/20 10:16:37;;;;;;;2.9;2.2;;;;;;;30.58;49.41211;934.2445;;;;
2021/06/20 10:19:01;;;;;;;2.8;2.2;;;;;;;30.41;50.25293;934.2906;;;;
2021/06/20 10:21:27;;;;;;;1.6;1.5;;;;;;;30.04;51.0127;934.3336;;;;
2021/06/20 10:23:53;;;;;;;6.8;2.6;;;;;;;29.43;52.14551;934.3095;;;;
2021/06/20 10:26:18;;;;;;;1.6;1.4;;;;;;;29.63;52.00391;934.3187;;;;
2021/06/20 10:28:45;;;;;;;2.1;1.8;;;;;;;29.68;51.60352;934.2971;;;;
2021/06/20 10:31:09;;;;;;;2.4;2.2;;;;;;;29.34;53.96973;934.2723;;;;
2021/06/20 10:33:34;;;;;;;2.2;1.6;;;;;;;29.62;52.59668;934.175;;;;
2021/06/20 10:36:01;;;;;;;4.5;1.9;;;;;;;29.72;52.85938;934.1074;;;;
2021/06/20 10:40:51;;;;;;;1.6;1.5;;;;;;;29.9;54.24121;934.0977;;;;
2021/06/20 10:43:16;;;;;;;9.8;2.3;;;;;;;29.85;54.46094;934.0603;;;;
2021/06/20 10:45:42;;;;;;;2.3;2.1;;;;;;;29.79;53.8457;934.0934;;;;
2021/06/20 10:48:07;;;;;;;2.3;1.8;;;;;;;30.02;51.40332;934.0403;;;;
2021/06/20 10:50:32;;;;;;;4.4;3.1;;;;;;;29.76;51.44629;934.0748;;;;
2021/06/20 10:52:57;;;;;;;1.2;1.2;;;;;;;29.38;53.9043;933.9957;;;;
2021/06/20 10:55:24;;;;;;;3.1;1.8;;;;;;;29.37;52.80762;933.9275;;;;
2021/06/20 10:57:50;;;;;;;3.4;1.7;;;;;;;28.95;55.24512;933.8376;;;;
2021/06/20 11:00:14;;;;;;;3.3;1.8;;;;;;;29.18;53.52246;933.7072;;;;
2021/06/20 11:02:40;;;;;;;4.6;1.9;;;;;;;29.27;53.2832;933.6627;;;;
2021/06/20 11:05:05;;;;;;;1.9;1.5;;;;;;;29.11;54.16797;933.6788;;;;
2021/06/20 11:07:31;;;;;;;3.6;2.1;;;;;;;28.71;55.7041;933.6004;;;;
2021/06/20 11:09:55;;;;;;;2;1.9;;;;;;;28.5;56.68945;933.5848;;;;
2021/06/20 11:12:21;;;;;;;3.1;1.8;;;;;;;28.57;56.60156;933.5606;;;;
2021/06/20 11:14:49;;;;;;;1.7;1.3;;;;;;;28.53;57.45313;933.6456;;;;
2021/06/20 11:17:32;;;;;;;9.7;2.6;;;;;;;28.76;54.75879;933.5392;;;;
2021/06/20 11:20:00;;;;;;;1.5;1.4;;;;;;;28.75;55.58984;933.5491;;;;
2021/06/20 11:22:26;;;;;;;1.6;1.5;;;;;;;28.8;56.22656;933.4991;;;;
2021/06/20 11:24:51;;;;;;;1.3;1.2;;;;;;;28.65;57.1709;933.4498;;;;
2021/06/20 11:27:18;;;;;;;3.1;2;;;;;;;28.88;56.4873;933.4383;;;;
2021/06/20 11:29:43;;;;;;;1.1;1.1;;;;;;;29.15;55.78223;933.3453;;;;
2021/06/20 11:32:08;;;;;;;1.2;1.1;;;;;;;29.15;53.5791;933.3585;;;;
2021/06/20 11:34:33;;;;;;;2.7;2.3;;;;;;;29.03;54.62402;933.3748;;;;
2021/06/20 11:36:58;;;;;;;2.7;1.7;;;;;;;29.08;54.1543;933.324;;;;
2021/06/20 11:39:24;;;;;;;1.9;1.6;;;;;;;29.11;54.94336;933.2034;;;;
2021/06/20 11:41:49;;;;;;;4.8;2.6;;;;;;;29.39;54.31055;933.2134;;;;
2021/06/20 11:44:15;;;;;;;8.2;2.7;;;;;;;29.53;53.75586;933.2441;;;;
2021/06/20 11:46:42;;;;;;;1.8;1.7;;;;;;;29.52;53.79004;933.2241;;;;
2021/06/20 11:49:05;;;;;;;1.7;1.3;;;;;;;29.19;55.35938;933.1994;;;;
2021/06/20 11:51:30;;;;;;;3.5;2.1;;;;;;;29.18;56.55957;933.1669;;;;
2021/06/20 11:53:55;;;;;;;6.3;2.5;;;;;;;29.15;55.48438;933.218;;;;
2021/06/20 11:56:21;;;;;;;2.2;1.9;;;;;;;29.18;55.05957;933.161;;;;
2021/06/20 11:58:46;;;;;;;2.5;1.5;;;;;;;28.77;55.40234;933.1599;;;;
2021/06/20 12:01:12;;;;;;;5.8;2.1;;;;;;;28.62;56.07324;933.1281;;;;
2021/06/20 12:03:37;;;;;;;7.5;2.1;;;;;;;28.43;57.91699;933.0667;;;;
2021/06/20 12:06:04;;;;;;;1.5;1.3;;;;;;;28.59;55.92578;933.0366;;;;
2021/06/20 12:08:27;;;;;;;2.3;1.9;;;;;;;28.45;56.56348;933.1066;;;;
2021/06/20 12:10:53;;;;;;;1.5;1.4;;;;;;;28.42;55.38281;933.1794;;;;
2021/06/20 12:13:18;;;;;;;1.3;1.2;;;;;;;28.6;54.02539;933.2272;;;;
2021/06/20 12:15:47;;;;;;;8.3;2.1;;;;;;;28.75;53.47168;933.2878;;;;
2021/06/20 12:18:12;;;;;;;1.5;1.4;;;;;;;28.73;54.47949;933.3066;;;;
2021/06/20 12:20:37;;;;;;;1.4;1.3;;;;;;;28.37;54.02051;933.3572;;;;
2021/06/20 12:23:02;;;;;;;3.9;2;;;;;;;28.12;54.10938;933.3337;;;;
2021/06/20 12:25:27;;;;;;;3.4;2.8;;;;;;;28.29;54.5;933.4026;;;;
2021/06/20 12:27:52;;;;;;;0.6;0.6;;;;;;;28.39;54.1416;933.4486;;;;
2021/06/20 12:30:18;;;;;;;3.5;1.9;;;;;;;28.56;54.55469;933.3998;;;;
2021/06/20 12:32:43;;;;;;;3;2.6;;;;;;;28.56;54.1748;933.4024;;;;
2021/06/20 12:35:10;;;;;;;2.5;1.4;;;;;;;28.44;54.25586;933.3438;;;;
2021/06/20 12:37:35;;;;;;;1.5;1.4;;;;;;;28.1;54.93848;933.3236;;;;
2021/06/20 12:40:00;;;;;;;3.2;2.2;;;;;;;27.76;56.5;933.1703;;;;
2021/06/20 12:42:25;;;;;;;2;1.9;;;;;;;27.86;56.04883;933.1139;;;;
2021/06/20 12:44:50;;;;;;;1.8;1.7;;;;;;;28.18;55.24609;933.0578;;;;
2021/06/20 12:47:15;;;;;;;2.7;1.9;;;;;;;28.28;55.77051;932.9457;;;;
2021/06/20 12:49:40;;;;;;;3.8;2.1;;;;;;;28.48;54.18945;932.9397;;;;
2021/06/20 12:52:05;;;;;;;3.3;2;;;;;;;28.58;53.87988;932.8933;;;;
2021/06/20 12:54:30;;;;;;;1.4;1.3;;;;;;;28.71;54.09863;932.8943;;;;
2021/06/20 12:56:56;;;;;;;7.5;3.2;;;;;;;28.81;54.39551;932.7043;;;;
2021/06/20 12:59:21;;;;;;;20.8;3.3;;;;;;;29.12;53.58789;932.6616;;;;
2021/06/20 13:01:46;;;;;;;3.2;1.8;;;;;;;29.47;52.38867;932.6351;;;;
2021/06/20 13:04:13;;;;;;;1.7;1.6;;;;;;;29.71;50.48633;932.5513;;;;
2021/06/20 13:06:36;;;;;;;1.5;1.4;;;;;;;29.55;51.19434;932.5625;;;;
2021/06/20 13:09:01;;;;;;;1.5;1.4;;;;;;;29.79;50.4707;932.4833;;;;
2021/06/20 13:11:26;;;;;;;1.3;1.3;;;;;;;29.95;49.35449;932.4308;;;;
2021/06/20 13:13:52;;;;;;;7.2;2;;;;;;;29.9;50.25586;932.4149;;;;
2021/06/20 13:16:17;;;;;;;1.7;1.6;;;;;;;29.92;49.70996;932.4114;;;;
2021/06/20 13:18:42;;;;;;;15.6;2.3;;;;;;;30.17;49.06836;932.3797;;;;
2021/06/20 13:21:09;;;;;;;3.5;2.3;;;;;;;29.87;49.57227;932.4067;;;;
2021/06/20 13:23:35;;;;;;;3.7;2.6;;;;;;;29.64;49.32129;932.3333;;;;
2021/06/20 13:26:00;;;;;;;2.2;2;;;;;;;29.28;50.67578;932.2014;;;;
2021/06/20 13:28:25;;;;;;;1.6;1.4;;;;;;;29.28;52.23633;932.1672;;;;
2021/06/20 13:30:51;;;;;;;2.3;2.1;;;;;;;29.22;50.94336;932.0999;;;;
2021/06/20 13:33:16;;;;;;;2.7;1.8;;;;;;;29.07;53.5459;931.9911;;;;
2021/06/20 13:35:43;;;;;;;2.2;1.8;;;;;;;29.48;52.65234;932.0212;;;;
2021/06/20 13:38:09;;;;;;;2.2;2;;;;;;;29.8;51.86621;931.9484;;;;
2021/06/20 13:40:37;;;;;;;1;1;;;;;;;29.86;52.2207;931.8571;;;;
2021/06/20 13:43:02;;;;;;;7.6;1.8;;;;;;;29.84;50.24902;931.7772;;;;
2021/06/20 13:45:27;;;;;;;4.8;1.7;;;;;;;30.07;50.31152;931.8594;;;;
2021/06/20 13:47:52;;;;;;;3.6;2.5;;;;;;;29.99;50.11133;931.7902;;;;
2021/06/20 13:50:17;;;;;;;3.4;2.1;;;;;;;29.95;49.73633;931.6633;;;;
2021/06/20 13:52:42;;;;;;;11.6;1.5;;;;;;;29.91;49.97266;931.6322;;;;
2021/06/20 13:55:12;;;;;;;2.2;2;;;;;;;29.57;51.32813;931.4861;;;;
2021/06/20 13:57:37;;;;;;;1.8;1.7;;;;;;;29.43;52.69336;931.3396;;;;
2021/06/20 14:00:02;;;;;;;3.6;2.5;;;;;;;29.4;53.31152;931.3225;;;;
2021/06/20 14:02:27;;;;;;;4.3;2.7;;;;;;;29.17;52.8916;931.3834;;;;
2021/06/20 14:04:52;;;;;;;4.7;2.4;;;;;;;29.18;52.99902;931.368;;;;
2021/06/20 14:07:19;;;;;;;6.3;2.2;;;;;;;29.17;51.54492;931.2789;;;;
2021/06/20 14:09:44;;;;;;;3.2;2.6;;;;;;;29.22;51.12207;931.1976;;;;
2021/06/20 14:12:10;;;;;;;5.1;2.5;;;;;;;29.52;51.22754;931.1777;;;;
2021/06/20 14:14:35;;;;;;;4.9;2.2;;;;;;;29.49;52.88086;931.2572;;;;
2021/06/20 14:17:02;;;;;;;6.3;2.9;;;;;;;29.23;52.5166;931.1463;;;;
2021/06/20 14:19:27;;;;;;;3.1;1.6;;;;;;;29.3;52.07227;931.1792;;;;
2021/06/20 14:21:53;;;;;;;4.1;2.6;;;;;;;29.42;52.41992;931.1799;;;;